Terminal Aerodrome Forecast
Issued by NWS

Home | Current Version | Previous Version | Text Only | Print | Product List | Glossary On
Versions: 1 2 3 4 5 6 7 8 9 10 11 12 13 14
330
FTUS41 KCLE 010529
TAFFDY
TAF
KFDY 010529Z 0106/0206 08006KT P6SM BKN250
     FM011600 15009KT P6SM SCT045 BKN150
     FM020000 17007KT P6SM VCTS SCT050 OVC100CB=

USA.gov is the U.S. government's official web portal to all federal, state and local government web resources and services.